Time;durP1;ratioP1;P1;durP2;ratioP2;P2;SDS_P1;SDS_P2;PMS_P1;PMS_P2;Temp;Humidity;BMP_temperature;BMP_pressure;BME280_temperature;BME280_humidity;BME280_pressure;Samples;Min_cycle;Max_cycle;Signal;HPM_P1;HPM_P2
2022/12/07 00:01:44;;;;;;;11.60;8.40;;;3.00;99.90;;;-141.84;89.16;18287.84;4993051;28;20230;-63
2022/12/07 00:04:16;;;;;;;10.90;8.53;;;2.90;99.90;;;-141.84;89.27;18287.84;4992998;28;20229;-63
2022/12/07 00:06:47;;;;;;;10.83;8.20;;;3.00;99.90;;;-141.84;89.25;18298.00;4997016;28;20310;-63
2022/12/07 00:09:18;;;;;;;12.00;8.80;;;3.00;99.90;;;-141.84;89.32;18300.03;5013059;28;20246;-63
2022/12/07 00:11:51;;;;;;;11.40;7.93;;;2.80;99.90;;;-141.84;89.07;18253.31;5013070;28;20767;-63
2022/12/07 00:14:21;;;;;;;12.57;8.60;;;2.90;99.90;;;-141.84;89.01;18283.78;4999998;28;20241;-61
2022/12/07 00:16:51;;;;;;;12.67;8.50;;;2.90;99.90;;;-141.84;88.38;18320.34;4993240;28;20234;-62
2022/12/07 00:19:20;;;;;;;12.30;8.33;;;2.80;99.90;;;-141.84;88.52;18300.03;4992902;28;20233;-63
2022/12/07 00:21:48;;;;;;;11.67;7.97;;;2.70;99.90;;;-141.84;89.15;18289.88;4992834;28;20241;-63
2022/12/07 00:24:17;;;;;;;12.30;8.97;;;2.60;99.90;;;-141.84;89.65;18285.81;4992782;28;20293;-62
2022/12/07 00:26:45;;;;;;;12.70;8.23;;;2.50;99.90;;;-141.84;90.20;18308.16;4993200;28;20665;-62
2022/12/07 00:29:18;;;;;;;11.63;8.43;;;2.50;99.90;;;-141.84;90.20;18261.44;4992568;28;20228;-64
2022/12/07 00:31:48;;;;;;;13.30;9.53;;;2.50;99.90;;;-141.84;90.19;18298.00;5004388;28;20233;-63
2022/12/07 00:34:20;;;;;;;15.43;10.60;;;2.50;99.90;;;-141.84;90.37;18302.06;5012219;28;20228;-62
2022/12/07 00:36:50;;;;;;;13.90;9.03;;;2.50;99.90;;;-141.84;90.17;18298.00;5012057;28;20224;-65
2022/12/07 00:39:18;;;;;;;11.27;8.03;;;2.40;99.90;;;-141.84;90.20;18273.63;5011874;28;20555;-63
2022/12/07 00:41:46;;;;;;;15.93;9.90;;;2.30;99.90;;;-141.84;90.14;18271.59;5012562;28;20206;-62
2022/12/07 00:44:14;;;;;;;13.63;10.20;;;2.30;99.90;;;-141.84;90.23;18295.97;4987052;28;20229;-62
2022/12/07 00:46:43;;;;;;;14.10;9.73;;;2.20;99.90;;;-141.84;90.37;18245.19;4986617;28;20928;-63
2022/12/07 00:49:12;;;;;;;14.30;10.70;;;2.10;99.90;;;-141.84;90.60;18269.56;5011727;28;20226;-63
2022/12/07 00:51:40;;;;;;;15.20;11.07;;;2.00;99.90;;;-141.84;90.34;18267.53;5012093;28;20281;-63
2022/12/07 00:54:09;;;;;;;14.67;11.13;;;2.00;99.90;;;-141.84;90.67;18273.63;5012149;28;20204;-63
2022/12/07 00:56:38;;;;;;;15.07;10.57;;;1.90;99.90;;;-141.84;90.80;18245.19;5011239;28;20250;-62
2022/12/07 00:59:06;;;;;;;14.67;11.20;;;1.80;99.90;;;-141.84;91.12;18263.47;5011708;28;20235;-62
2022/12/07 01:01:37;;;;;;;16.37;11.40;;;1.70;99.90;;;-141.84;91.33;18261.44;5011458;28;20234;-63
2022/12/07 01:04:06;;;;;;;16.23;12.20;;;1.70;99.90;;;-141.84;91.23;18241.13;5011784;28;20234;-63
2022/12/07 01:06:36;;;;;;;15.63;11.57;;;1.70;99.90;;;-141.84;91.40;18257.38;5011887;28;20612;-63
2022/12/07 01:09:05;;;;;;;16.90;11.70;;;1.60;99.90;;;-141.84;91.39;18237.06;5011620;28;20264;-62
2022/12/07 01:11:34;;;;;;;17.50;12.67;;;1.60;99.90;;;-141.84;91.67;18241.13;5011563;28;20235;-63
2022/12/07 01:14:03;;;;;;;14.97;10.47;;;1.60;99.90;;;-141.84;91.70;18247.22;5011287;28;20234;-64
2022/12/07 01:16:33;;;;;;;18.57;11.77;;;1.60;99.90;;;-141.84;91.80;18232.97;5011553;28;20780;-62
2022/12/07 01:19:04;;;;;;;16.53;11.63;;;1.50;99.90;;;-141.84;91.92;18224.84;5011665;28;20232;-62
2022/12/07 01:21:37;;;;;;;16.03;11.40;;;1.50;99.90;;;-141.84;91.84;18243.16;5011896;28;20248;-63
2022/12/07 01:24:10;;;;;;;17.33;12.87;;;1.50;99.90;;;-141.84;92.24;18257.38;5011919;28;20191;-62
2022/12/07 01:26:38;;;;;;;16.40;11.00;;;1.50;99.90;;;-141.84;91.57;18210.63;5011420;28;20230;-62
2022/12/07 01:29:06;;;;;;;16.50;11.73;;;1.60;99.90;;;-141.84;91.49;18255.34;5011327;28;20234;-63
2022/12/07 01:31:35;;;;;;;19.80;12.67;;;1.50;99.90;;;-141.84;91.41;18249.25;5000603;28;20351;-61
2022/12/07 01:34:03;;;;;;;17.90;12.77;;;1.50;99.90;;;-141.84;91.39;18232.97;4998156;28;20481;-61
2022/12/07 01:36:33;;;;;;;17.87;12.33;;;1.40;99.90;;;-141.84;91.55;18249.25;5011394;28;20207;-63
2022/12/07 01:39:06;;;;;;;19.37;14.07;;;1.40;99.90;;;-141.84;91.71;18237.06;5011832;28;20187;-63
2022/12/07 01:41:40;;;;;;;15.57;11.93;;;1.40;99.90;;;-141.84;91.39;18208.59;5010879;28;20257;-63
2022/12/07 01:44:29;;;;;;;17.23;12.03;;;1.30;99.90;;;-141.84;91.29;18245.19;5010970;28;20771;-62
2022/12/07 01:47:00;;;;;;;19.97;13.73;;;1.30;99.90;;;-141.84;91.25;18235.00;4997149;28;20223;-63
2022/12/07 01:49:36;;;;;;;18.13;13.43;;;1.30;99.90;;;-141.84;91.40;18216.72;4991462;28;20290;-62
2022/12/07 01:52:18;;;;;;;19.93;14.07;;;1.30;99.90;;;-141.84;91.17;18216.72;4991752;28;20238;-61
2022/12/07 01:54:52;;;;;;;17.37;12.50;;;1.30;99.90;;;-141.84;91.14;18249.25;4991484;28;20234;-62
2022/12/07 01:57:22;;;;;;;18.70;12.77;;;1.30;99.90;;;-141.84;91.20;18188.28;4991494;28;20187;-64
2022/12/07 01:59:54;;;;;;;18.37;12.67;;;1.20;99.90;;;-141.84;91.36;18198.44;4991519;28;20208;-63
2022/12/07 02:02:28;;;;;;;17.43;12.63;;;1.20;99.90;;;-141.84;91.44;18210.63;5008375;28;20292;-62
2022/12/07 02:05:00;;;;;;;15.73;11.00;;;1.10;99.90;;;-141.84;91.24;18194.38;5010747;28;20327;-63
2022/12/07 02:07:30;;;;;;;18.30;11.63;;;1.10;99.90;;;-141.84;91.12;18220.78;5010657;28;20273;-62
2022/12/07 02:10:14;;;;;;;17.37;11.30;;;1.10;99.90;;;-141.84;91.30;18232.97;5014110;28;20233;-63
2022/12/07 02:12:45;;;;;;;15.87;10.10;;;1.00;99.90;;;-141.84;91.39;18220.78;5015120;28;20248;-63
2022/12/07 02:15:14;;;;;;;15.03;9.57;;;1.00;99.90;;;-141.84;91.41;18241.13;4995543;28;20199;-62
2022/12/07 02:17:55;;;;;;;17.17;10.53;;;1.00;99.90;;;-141.84;91.45;18237.06;5014712;28;20219;-63
2022/12/07 02:20:32;;;;;;;17.63;11.13;;;1.00;99.90;;;-141.84;91.35;18186.25;5014363;28;20236;-63
2022/12/07 02:23:49;;;;;;;15.47;10.40;;;1.10;99.90;;;-141.84;91.14;18204.53;5014436;28;20234;-62
2022/12/07 02:27:00;;;;;;;17.30;11.03;;;1.00;99.90;;;-141.84;91.03;18218.75;5014530;28;20230;-62
2022/12/07 02:29:39;;;;;;;19.23;11.20;;;1.10;99.90;;;-141.84;90.95;18206.56;4999668;28;20661;-62
2022/12/07 02:32:17;;;;;;;16.63;10.67;;;1.10;99.90;;;-141.84;91.12;18206.56;5009987;28;20284;-63
2022/12/07 02:34:52;;;;;;;18.27;11.47;;;1.10;99.90;;;-141.84;91.04;18245.19;5014435;28;20242;-64
2022/12/07 02:37:37;;;;;;;19.80;13.20;;;1.20;99.90;;;-141.84;90.73;18237.06;5014116;28;20234;-62
2022/12/07 02:40:12;;;;;;;18.40;12.67;;;1.20;99.90;;;-141.84;90.41;18241.13;5007220;28;20230;-62
2022/12/07 02:42:47;;;;;;;19.00;12.70;;;1.20;99.90;;;-141.84;90.34;18245.19;4994673;28;20222;-63
2022/12/07 02:45:23;;;;;;;17.60;12.40;;;1.20;99.90;;;-141.84;90.17;18243.16;4975113;28;20188;-63
2022/12/07 02:47:58;;;;;;;19.23;11.47;;;1.10;99.90;;;-141.84;90.32;18218.75;4986985;28;20187;-63
2022/12/07 02:50:28;;;;;;;14.50;10.23;;;1.10;99.90;;;-141.84;89.73;18208.59;4994508;28;20237;-63
2022/12/07 02:52:56;;;;;;;16.13;10.97;;;1.20;99.90;;;-141.84;89.32;18265.50;4994238;28;20656;-63
2022/12/07 02:55:31;;;;;;;19.17;10.63;;;1.20;99.90;;;-141.84;88.66;18259.41;5003405;28;20706;-63
2022/12/07 02:58:24;;;;;;;16.20;9.30;;;1.30;99.90;;;-141.84;89.01;18261.44;5013878;28;20229;-63
2022/12/07 03:01:09;;;;;;;17.13;10.43;;;1.30;99.90;;;-141.84;89.16;18241.13;5013805;28;20285;-62
2022/12/07 03:03:43;;;;;;;16.37;10.37;;;1.30;99.90;;;-141.84;88.68;18261.44;5014225;28;20324;-63
2022/12/07 03:06:23;;;;;;;15.87;9.67;;;1.30;99.90;;;-141.84;88.33;18269.56;5014331;28;20183;-62
2022/12/07 03:09:02;;;;;;;14.80;9.27;;;1.30;99.90;;;-141.84;88.62;18220.78;5013969;28;20210;-63
2022/12/07 03:11:43;;;;;;;17.00;9.70;;;1.30;99.90;;;-141.84;89.00;18253.31;5013530;28;20226;-64
2022/12/07 03:14:20;;;;;;;13.07;8.67;;;1.20;99.90;;;-141.84;88.84;18259.41;5002410;28;20226;-63
2022/12/07 03:16:59;;;;;;;15.90;9.43;;;1.20;99.90;;;-141.84;89.06;18249.25;5006367;28;20292;-62
2022/12/07 03:19:28;;;;;;;14.27;9.53;;;1.20;99.90;;;-141.84;89.25;18298.00;5013168;28;20578;-62
2022/12/07 03:22:01;;;;;;;17.40;9.97;;;1.20;99.90;;;-141.84;89.08;18235.00;5013221;28;20238;-62
2022/12/07 03:24:36;;;;;;;13.50;9.33;;;1.30;99.90;;;-141.84;88.44;18257.38;5013630;28;20206;-63
2022/12/07 03:27:10;;;;;;;16.33;8.90;;;1.70;99.90;;;-141.84;87.63;18281.75;5013896;28;20241;-62
2022/12/07 03:29:46;;;;;;;13.60;8.90;;;1.40;99.90;;;-141.84;86.92;18287.84;5013391;28;20894;-63
2022/12/07 03:32:24;;;;;;;12.70;8.93;;;1.40;99.90;;;-141.84;87.08;18293.94;4997286;28;20265;-63
2022/12/07 03:35:01;;;;;;;13.07;8.23;;;1.50;99.90;;;-141.84;87.46;18257.38;4993895;28;20227;-63
2022/12/07 03:37:38;;;;;;;12.93;8.10;;;1.40;99.90;;;-141.84;87.62;18269.56;4993258;28;20322;-63
2022/12/07 03:40:18;;;;;;;11.43;8.07;;;1.50;99.90;;;-141.84;87.05;18300.03;4993718;28;20227;-62
2022/12/07 03:42:47;;;;;;;11.83;7.80;;;1.50;99.90;;;-141.84;86.89;18289.88;4993409;28;20270;-62
2022/12/07 03:45:17;;;;;;;11.23;8.27;;;1.50;99.90;;;-141.84;87.17;18273.63;4974216;28;20224;-63
2022/12/07 03:47:57;;;;;;;13.30;8.80;;;1.60;99.90;;;-141.84;87.31;18265.50;4984919;28;20222;-63
2022/12/07 03:50:37;;;;;;;12.97;8.57;;;1.60;99.90;;;-141.84;86.71;18283.78;4993208;28;20231;-63
2022/12/07 03:53:14;;;;;;;9.97;7.33;;;1.50;99.90;;;-141.84;86.12;18269.56;5008122;28;20234;-63
2022/12/07 03:55:46;;;;;;;9.63;7.40;;;1.60;99.90;;;-141.84;85.64;18310.19;5012996;28;20241;-62
2022/12/07 03:58:20;;;;;;;11.40;7.67;;;1.60;99.90;;;-141.84;85.85;18310.19;5012904;28;20231;-63
2022/12/07 04:00:50;;;;;;;10.83;7.50;;;1.70;99.90;;;-141.84;85.51;18304.09;5012607;28;20246;-62
2022/12/07 04:03:20;;;;;;;10.77;7.00;;;1.70;99.90;;;-141.84;85.22;18281.75;5012955;28;20261;-62
2022/12/07 04:05:48;;;;;;;10.87;8.07;;;1.80;99.90;;;-141.84;84.31;18298.00;5013460;28;20210;-63
2022/12/07 04:08:16;;;;;;;10.57;6.87;;;1.90;99.90;;;-141.84;83.80;18306.13;5012422;28;20238;-63
2022/12/07 04:10:45;;;;;;;9.97;7.00;;;2.00;99.90;;;-141.84;82.96;18316.28;5012604;28;20943;-63
2022/12/07 04:13:13;;;;;;;11.23;7.43;;;2.10;99.90;;;-141.84;82.99;18338.63;5007705;28;20227;-62
2022/12/07 04:15:41;;;;;;;11.57;7.90;;;2.10;99.90;;;-141.84;82.68;18336.59;4996606;28;20233;-62
2022/12/07 04:18:09;;;;;;;9.63;7.33;;;2.10;99.90;;;-141.84;82.46;18358.94;5012913;28;20566;-62
2022/12/07 04:20:39;;;;;;;11.67;7.30;;;2.20;99.90;;;-141.84;82.32;18369.09;5012550;28;20280;-62
2022/12/07 04:23:07;;;;;;;10.33;7.63;;;2.20;99.90;;;-141.84;81.75;18375.19;5012261;28;20921;-62
2022/12/07 04:25:35;;;;;;;10.47;7.47;;;2.20;99.90;;;-141.84;81.56;18365.03;5012735;28;20836;-65
2022/12/07 04:28:03;;;;;;;10.57;7.37;;;2.30;99.90;;;-141.84;81.52;18385.34;5012011;28;20219;-64
2022/12/07 04:30:31;;;;;;;9.37;7.03;;;2.30;99.90;;;-141.84;80.93;18397.53;5012320;28;20217;-62
2022/12/07 04:33:00;;;;;;;8.53;6.37;;;2.40;99.90;;;-141.84;80.94;18411.75;5012323;28;20207;-62
2022/12/07 04:35:28;;;;;;;8.97;6.57;;;2.50;99.90;;;-141.84;81.29;18387.38;5012288;28;20231;-63
2022/12/07 04:37:57;;;;;;;9.97;6.80;;;2.40;99.90;;;-141.84;81.43;18363.00;5011866;28;20668;-64
2022/12/07 04:40:25;;;;;;;9.30;7.57;;;2.50;99.90;;;-141.84;81.32;18407.69;5012220;28;20241;-63
2022/12/07 04:42:53;;;;;;;8.50;6.83;;;2.40;99.90;;;-141.84;81.46;18377.22;5011648;28;20232;-62
2022/12/07 04:45:21;;;;;;;10.03;7.27;;;2.50;99.90;;;-141.84;81.91;18358.94;5011307;28;20602;-62
2022/12/07 04:47:50;;;;;;;10.20;7.60;;;2.50;99.90;;;-141.84;82.05;18371.13;4992443;28;20230;-63
2022/12/07 04:50:18;;;;;;;10.13;7.50;;;2.60;99.90;;;-141.84;81.77;18381.28;5009135;28;20596;-63
2022/12/07 04:52:46;;;;;;;10.40;7.73;;;2.50;99.90;;;-141.84;81.30;18358.94;5011565;28;20281;-63
2022/12/07 04:55:16;;;;;;;10.37;7.83;;;2.50;99.90;;;-141.84;81.86;18379.25;5011981;28;20237;-62
2022/12/07 04:57:44;;;;;;;10.33;7.37;;;2.50;99.90;;;-141.84;81.91;18391.44;5011921;28;20226;-63
2022/12/07 05:00:12;;;;;;;9.40;6.93;;;2.50;99.90;;;-141.84;81.43;18385.34;5012473;28;20257;-64
2022/12/07 05:02:40;;;;;;;10.10;7.23;;;2.50;99.90;;;-141.84;81.77;18365.03;5012070;28;20226;-63
2022/12/07 05:05:09;;;;;;;9.33;7.60;;;2.50;99.90;;;-141.84;82.26;18407.69;5011821;28;20228;-63
2022/12/07 05:07:37;;;;;;;11.43;8.33;;;2.50;99.90;;;-141.84;81.87;18393.47;5011419;28;20230;-63
2022/12/07 05:10:07;;;;;;;9.47;6.97;;;2.50;99.90;;;-141.84;82.12;18387.38;5011591;28;20742;-63
2022/12/07 05:12:37;;;;;;;8.50;6.63;;;2.50;99.90;;;-141.84;81.87;18389.41;5011615;28;20306;-63
2022/12/07 05:15:06;;;;;;;8.70;6.57;;;2.50;99.90;;;-141.84;81.61;18421.91;4993376;28;20258;-64
2022/12/07 05:17:34;;;;;;;11.17;7.23;;;2.50;99.90;;;-141.84;81.47;18377.22;5010513;28;20226;-63
2022/12/07 05:20:03;;;;;;;11.73;6.57;;;2.60;99.90;;;-141.84;81.96;18385.34;5011497;28;20235;-63
2022/12/07 05:22:32;;;;;;;9.63;7.17;;;2.60;99.90;;;-141.84;82.13;18399.56;5011036;28;20274;-63
2022/12/07 05:25:00;;;;;;;9.40;7.17;;;2.60;99.90;;;-141.84;82.21;18358.94;5011694;28;20273;-63
2022/12/07 05:27:28;;;;;;;10.00;7.23;;;2.60;99.90;;;-141.84;81.97;18375.19;5011197;28;20203;-63
2022/12/07 05:29:58;;;;;;;9.53;6.80;;;2.60;99.90;;;-141.84;81.86;18411.75;4993693;28;20212;-63
2022/12/07 05:32:26;;;;;;;8.80;6.73;;;2.60;99.90;;;-141.84;81.76;18395.50;5009148;28;20314;-62
2022/12/07 05:34:54;;;;;;;10.17;7.30;;;2.70;99.90;;;-141.84;82.08;18391.44;5011448;28;20239;-63
2022/12/07 05:37:22;;;;;;;11.07;8.10;;;2.70;99.90;;;-141.84;82.48;18385.34;5011157;28;20283;-62
2022/12/07 05:39:51;;;;;;;9.73;7.17;;;2.60;99.90;;;-141.84;82.99;18395.50;5011175;28;20768;-63
2022/12/07 05:42:19;;;;;;;11.17;7.60;;;2.60;99.90;;;-141.84;83.13;18395.50;5011012;28;20699;-63
2022/12/07 05:44:47;;;;;;;10.13;8.00;;;2.70;99.90;;;-141.84;83.22;18375.19;5011397;28;20257;-62
2022/12/07 05:47:17;;;;;;;12.30;8.00;;;2.60;99.90;;;-141.84;83.37;18356.91;5010904;28;20228;-62
2022/12/07 05:49:45;;;;;;;9.67;7.47;;;2.60;99.90;;;-141.84;83.18;18373.16;4998791;28;20239;-63
2022/12/07 05:52:14;;;;;;;10.97;8.00;;;2.70;99.90;;;-141.84;82.70;18373.16;4991671;28;20229;-63
2022/12/07 05:54:42;;;;;;;11.63;8.10;;;2.70;99.90;;;-141.84;82.05;18395.50;4991743;28;20231;-63
2022/12/07 05:57:10;;;;;;;11.90;8.60;;;2.80;99.90;;;-141.84;81.95;18373.16;4992229;28;20209;-63
2022/12/07 05:59:37;;;;;;;11.33;8.73;;;2.80;99.90;;;-141.84;82.71;18413.78;4991328;28;20232;-62
2022/12/07 06:02:09;;;;;;;13.40;9.60;;;2.80;99.90;;;-141.84;82.88;18383.31;4991480;28;20232;-63
2022/12/07 06:04:41;;;;;;;16.17;11.20;;;2.90;99.90;;;-141.84;82.47;18419.88;4991537;28;20239;-62
2022/12/07 06:07:12;;;;;;;14.50;10.27;;;2.90;99.90;;;-141.84;82.74;18399.56;4991287;28;20275;-62
2022/12/07 06:09:40;;;;;;;19.30;12.43;;;2.90;99.90;;;-141.84;83.32;18395.50;4991683;28;20248;-62
2022/12/07 06:14:56;;;;;;;13.97;9.80;;;2.80;99.90;;;-141.84;83.59;18383.31;4991326;28;20228;-63
2022/12/07 06:17:25;;;;;;;15.30;11.00;;;2.90;99.90;;;-141.84;83.41;18365.03;4991565;28;20239;-63
2022/12/07 06:19:54;;;;;;;14.00;10.40;;;2.90;99.90;;;-141.84;83.93;18393.47;4991327;28;20302;-62
2022/12/07 06:22:22;;;;;;;15.40;11.63;;;2.90;99.90;;;-141.84;84.08;18371.13;4991120;28;20241;-63
2022/12/07 06:24:50;;;;;;;11.70;9.53;;;2.80;99.90;;;-141.84;83.75;18395.50;4990924;28;20228;-63
2022/12/07 06:27:19;;;;;;;15.00;11.03;;;2.90;99.90;;;-141.84;83.65;18403.63;4991237;28;20223;-63
2022/12/07 06:29:47;;;;;;;16.13;11.70;;;2.90;99.90;;;-141.84;83.94;18367.06;5008648;28;20203;-62
2022/12/07 06:32:15;;;;;;;15.40;10.40;;;2.90;99.90;;;-141.84;84.55;18344.72;5010678;28;20224;-64
2022/12/07 06:34:43;;;;;;;16.60;11.40;;;2.80;99.90;;;-141.84;84.67;18373.16;5010853;28;20230;-64
2022/12/07 06:37:12;;;;;;;15.20;11.53;;;2.80;99.90;;;-141.84;85.06;18393.47;5010228;28;20232;-63
2022/12/07 06:39:41;;;;;;;18.33;11.77;;;2.70;99.90;;;-141.84;85.44;18346.75;5007994;28;20230;-62
2022/12/07 06:42:09;;;;;;;14.77;10.60;;;2.70;99.90;;;-141.84;85.86;18358.94;5011307;28;20269;-62
2022/12/07 06:44:37;;;;;;;17.80;12.37;;;2.60;99.90;;;-141.84;86.48;18346.75;4994288;28;20231;-63
2022/12/07 06:47:05;;;;;;;14.03;11.17;;;2.50;99.90;;;-141.84;86.52;18330.50;4999904;28;20224;-62
2022/12/07 06:49:53;;;;;;;17.33;12.00;;;2.50;99.90;;;-141.84;86.54;18340.66;5003790;28;20235;-63
2022/12/07 06:52:23;;;;;;;17.40;12.10;;;2.60;99.90;;;-141.84;86.74;18379.25;5010479;28;20565;-64
2022/12/07 06:54:51;;;;;;;19.47;12.17;;;2.70;99.90;;;-141.84;86.68;18326.44;5011911;28;20237;-64
2022/12/07 06:57:20;;;;;;;16.87;11.73;;;2.70;99.90;;;-141.84;86.51;18363.00;5013767;28;20294;-63
2022/12/07 06:59:48;;;;;;;17.77;12.20;;;2.80;99.90;;;-141.84;86.00;18367.06;5014234;28;20216;-63
2022/12/07 07:02:16;;;;;;;17.07;11.93;;;2.90;99.90;;;-141.84;85.85;18354.88;5013895;28;20233;-63
2022/12/07 07:04:44;;;;;;;18.20;12.23;;;2.90;99.90;;;-141.84;85.41;18391.44;5013797;28;20317;-64
2022/12/07 07:07:12;;;;;;;17.27;12.23;;;2.90;99.90;;;-141.84;84.83;18363.00;5013595;28;20231;-62
2022/12/07 07:09:42;;;;;;;15.70;11.43;;;3.00;99.90;;;-141.84;84.11;18385.34;5013925;28;20288;-63
2022/12/07 07:12:10;;;;;;;16.67;11.80;;;3.00;99.90;;;-141.84;84.47;18387.38;5014426;28;20208;-62
2022/12/07 07:14:38;;;;;;;16.27;11.83;;;3.10;99.90;;;-141.84;84.62;18332.53;5013385;28;20223;-63
2022/12/07 07:17:06;;;;;;;16.13;11.40;;;3.00;99.90;;;-141.84;84.21;18383.31;4998620;28;20239;-63
2022/12/07 07:19:34;;;;;;;17.03;11.50;;;3.10;99.90;;;-141.84;84.27;18391.44;4993966;28;20233;-63
2022/12/07 07:22:03;;;;;;;17.47;12.80;;;3.10;99.90;;;-141.84;84.57;18391.44;4993927;28;20225;-62
2022/12/07 07:24:31;;;;;;;17.30;12.53;;;3.10;99.90;;;-141.84;85.03;18371.13;4993851;28;20238;-62
2022/12/07 07:27:01;;;;;;;21.87;16.50;;;3.10;99.90;;;-141.84;84.94;18393.47;4994414;28;20218;-63
2022/12/07 07:29:29;;;;;;;17.17;12.50;;;3.20;99.90;;;-141.84;84.88;18393.47;4996217;28;20713;-60
2022/12/07 07:31:57;;;;;;;17.87;12.53;;;3.10;99.90;;;-141.84;85.16;18358.94;5007245;28;20251;-61
2022/12/07 07:34:33;;;;;;;15.83;12.07;;;3.10;99.90;;;-141.84;85.12;18375.19;5002631;28;20238;-60
2022/12/07 07:37:02;;;;;;;17.20;12.97;;;3.00;99.90;;;-141.84;85.35;18367.06;4999474;28;20702;-60
2022/12/07 07:39:30;;;;;;;17.03;13.00;;;3.10;99.90;;;-141.84;85.56;18354.88;5012189;28;20701;-61
2022/12/07 07:41:59;;;;;;;18.23;13.40;;;3.10;99.90;;;-141.84;85.07;18363.00;5012900;28;20220;-60
2022/12/07 07:44:27;;;;;;;16.70;12.50;;;3.10;99.90;;;-141.84;84.94;18379.25;4997754;28;20265;-60
2022/12/07 07:47:02;;;;;;;18.63;12.27;;;3.30;99.90;;;-141.84;84.89;18377.22;4992943;28;20219;-60
2022/12/07 07:49:30;;;;;;;15.67;12.00;;;3.10;99.90;;;-141.84;83.73;18379.25;5003146;28;20611;-61
2022/12/07 07:51:58;;;;;;;16.53;12.03;;;3.10;99.90;;;-141.84;83.38;18395.50;5012524;28;20246;-61
2022/12/07 07:54:26;;;;;;;15.80;11.23;;;3.20;99.90;;;-141.84;83.58;18381.28;5012821;28;20201;-60
2022/12/07 07:56:54;;;;;;;15.53;11.00;;;3.10;99.90;;;-141.84;84.30;18399.56;5012901;28;20232;-62
2022/12/07 07:59:25;;;;;;;14.17;10.77;;;3.10;99.90;;;-141.84;84.16;18375.19;5012313;28;20228;-63
2022/12/07 08:01:53;;;;;;;13.83;10.27;;;3.10;99.90;;;-141.84;84.03;18391.44;5012493;28;20285;-61
2022/12/07 08:04:21;;;;;;;15.67;10.93;;;3.10;99.90;;;-141.84;84.47;18369.09;5012523;28;20676;-62
2022/12/07 08:06:49;;;;;;;14.17;10.57;;;3.10;99.90;;;-141.84;84.49;18367.06;5010186;28;20242;-62
2022/12/07 08:09:17;;;;;;;16.17;10.63;;;3.20;99.90;;;-141.84;84.86;18379.25;4992994;28;20535;-62
2022/12/07 08:11:46;;;;;;;15.40;11.07;;;3.00;99.90;;;-141.84;85.07;18367.06;4993209;28;20215;-60
2022/12/07 08:14:14;;;;;;;13.30;10.10;;;3.10;99.90;;;-141.84;84.63;18391.44;5004020;28;20640;-62
2022/12/07 08:16:43;;;;;;;13.43;10.20;;;3.00;99.90;;;-141.84;85.00;18377.22;5000262;28;20241;-61
2022/12/07 08:19:12;;;;;;;14.60;10.43;;;3.00;99.90;;;-141.84;85.38;18379.25;4992985;28;20225;-63
2022/12/07 08:21:40;;;;;;;14.50;10.57;;;3.00;99.90;;;-141.84;86.02;18346.75;4992720;28;20234;-63
2022/12/07 08:24:08;;;;;;;16.57;12.00;;;3.00;99.90;;;-141.84;86.58;18350.81;4993025;28;20314;-60
2022/12/07 08:26:36;;;;;;;16.27;11.67;;;2.90;99.90;;;-141.84;85.88;18350.81;4992230;28;20231;-61
2022/12/07 08:29:05;;;;;;;16.27;11.90;;;3.10;99.90;;;-141.84;84.98;18367.06;4992112;28;20237;-63
2022/12/07 08:31:33;;;;;;;17.60;11.97;;;3.20;99.90;;;-141.84;84.78;18377.22;4991960;28;20238;-62
2022/12/07 08:34:03;;;;;;;16.07;11.50;;;3.30;99.90;;;-141.84;84.19;18399.56;4998494;28;20231;-61
2022/12/07 08:36:31;;;;;;;14.70;10.30;;;3.40;99.90;;;-141.84;82.39;18428.03;5011702;28;20212;-62
2022/12/07 08:38:59;;;;;;;15.30;10.43;;;3.60;99.90;;;-141.84;82.05;18411.75;5012436;28;20209;-64
2022/12/07 08:41:47;;;;;;;13.97;10.17;;;3.80;99.90;;;-141.84;81.28;18419.88;5011494;28;20253;-63
2022/12/07 08:44:16;;;;;;;14.77;10.03;;;3.90;99.90;;;-141.84;80.84;18430.06;4998526;28;20222;-61
2022/12/07 08:46:53;;;;;;;14.27;9.63;;;4.00;99.90;;;-141.84;81.13;18421.91;5001115;28;20237;-62
2022/12/07 08:49:28;;;;;;;13.30;9.53;;;4.10;99.90;;;-141.84;80.32;18436.16;5000520;28;20263;-60
2022/12/07 08:51:57;;;;;;;11.77;8.37;;;4.20;99.90;;;-141.84;79.65;18507.25;5011326;28;20226;-63
2022/12/07 08:54:26;;;;;;;11.13;8.60;;;4.20;99.90;;;-141.84;79.35;18466.63;5011080;28;20209;-63
2022/12/07 08:56:57;;;;;;;12.87;7.70;;;4.20;99.90;;;-141.84;79.03;18452.41;5011964;28;20198;-63
2022/12/07 08:59:29;;;;;;;12.63;8.23;;;4.30;99.90;;;-141.84;78.97;18438.19;5023447;28;20260;-60
2022/12/07 09:01:57;;;;;;;10.97;8.33;;;4.30;99.90;;;-141.84;79.21;18464.59;5017156;28;20234;-66
2022/12/07 09:04:28;;;;;;;11.73;8.10;;;4.30;99.90;;;-141.84;78.46;18464.59;5011480;28;20237;-61
2022/12/07 09:06:57;;;;;;;14.00;8.63;;;4.30;99.90;;;-141.84;78.81;18495.06;5011285;28;20825;-60
2022/12/07 09:09:25;;;;;;;11.67;7.80;;;4.20;99.90;;;-141.84;78.25;18497.09;5011222;28;20200;-60
2022/12/07 09:11:53;;;;;;;9.93;7.67;;;4.30;99.90;;;-141.84;79.03;18507.25;5011705;28;20206;-59
2022/12/07 09:14:21;;;;;;;11.37;7.37;;;4.40;99.90;;;-141.84;78.66;18476.78;4997726;28;20229;-62
2022/12/07 09:16:50;;;;;;;9.73;7.00;;;4.50;99.90;;;-141.84;77.38;18511.31;4991323;28;20246;-62
2022/12/07 09:19:18;;;;;;;9.20;7.13;;;4.50;99.90;;;-141.84;77.02;18493.03;4991439;28;20231;-63
2022/12/07 09:21:47;;;;;;;11.30;7.20;;;4.50;99.90;;;-141.84;76.85;18513.34;4991323;28;20234;-63
2022/12/07 09:24:15;;;;;;;10.13;7.40;;;4.60;99.90;;;-141.84;76.21;18547.88;4991784;28;20232;-64
2022/12/07 09:26:44;;;;;;;9.17;7.10;;;4.60;99.90;;;-141.84;77.02;18525.53;4991760;28;20218;-61
2022/12/07 09:29:12;;;;;;;9.60;6.83;;;4.70;99.90;;;-141.84;76.83;18531.63;4994516;28;20235;-61
2022/12/07 09:31:41;;;;;;;11.33;6.77;;;4.60;99.90;;;-141.84;76.77;18511.31;5002463;28;20238;-61
2022/12/07 09:34:09;;;;;;;12.13;7.50;;;4.70;99.90;;;-141.84;77.46;18517.41;5010932;28;20225;-61
2022/12/07 09:36:38;;;;;;;11.17;7.07;;;4.60;99.90;;;-141.84;77.28;18547.88;5010710;28;20226;-64
2022/12/07 09:39:07;;;;;;;11.07;6.50;;;4.60;99.90;;;-141.84;77.60;18515.38;5011123;28;20225;-64
2022/12/07 09:41:40;;;;;;;10.73;7.07;;;4.60;99.90;;;-141.84;78.61;18507.25;5010384;28;20233;-60
2022/12/07 09:44:14;;;;;;;11.23;7.00;;;4.50;99.90;;;-141.84;78.85;18513.34;5010481;28;20217;-60
2022/12/07 09:46:45;;;;;;;11.87;7.03;;;4.50;99.90;;;-141.84;79.33;18484.91;4998699;28;20331;-61
2022/12/07 09:49:19;;;;;;;9.90;6.97;;;4.40;99.90;;;-141.84;79.83;18454.44;4990958;28;20770;-61
2022/12/07 09:51:49;;;;;;;11.17;7.00;;;4.40;99.90;;;-141.84;79.91;18458.50;4990744;28;20831;-62
2022/12/07 09:54:18;;;;;;;10.43;7.27;;;4.40;99.90;;;-141.84;80.39;18470.69;4990985;28;20275;-63
2022/12/07 09:56:46;;;;;;;12.70;6.97;;;4.20;99.90;;;-141.84;81.36;18442.25;4991703;28;20211;-63
2022/12/07 09:59:19;;;;;;;9.80;7.00;;;4.10;99.90;;;-141.84;82.01;18460.53;4990864;28;20227;-64
2022/12/07 10:01:50;;;;;;;10.80;7.67;;;4.00;99.90;;;-141.84;82.00;18460.53;4990452;28;20237;-63
2022/12/07 10:04:22;;;;;;;12.13;7.63;;;4.10;99.90;;;-141.84;82.13;18466.63;4990395;28;20691;-64
2022/12/07 10:06:51;;;;;;;12.23;7.80;;;4.10;99.90;;;-141.84;81.72;18466.63;4991072;28;20243;-62
2022/12/07 10:09:24;;;;;;;9.80;7.20;;;4.20;99.90;;;-141.84;81.98;18454.44;4990408;28;20595;-62
2022/12/07 10:12:05;;;;;;;15.80;8.23;;;4.20;99.90;;;-141.84;82.38;18446.31;4991219;28;20663;-64
2022/12/07 10:14:36;;;;;;;13.87;7.80;;;4.30;99.90;;;-141.84;81.57;18476.78;4990701;28;20226;-62
2022/12/07 10:17:39;;;;;;;12.17;7.53;;;4.40;99.90;;;-141.84;81.01;18474.75;4990515;28;20262;-62
2022/12/07 10:20:23;;;;;;;12.10;7.53;;;4.50;99.90;;;-141.84;81.25;18482.88;4991191;28;20223;-61
2022/12/07 10:23:02;;;;;;;10.83;7.50;;;4.60;99.90;;;-141.84;80.83;18525.53;4990719;28;20238;-63